sensor_id;sensor_type;location;lat;lon;timestamp;pressure;altitude;pressure_sealevel;temperature;humidity
64362;BME280;50685;53.346;-6.296;2023-08-20T00:00:15;101216.22;;;16.61;100.00
64362;BME280;50685;53.346;-6.296;2023-08-20T00:02:43;101216.06;;;16.60;100.00
64362;BME280;50685;53.346;-6.296;2023-08-20T00:05:14;101216.34;;;16.59;100.00
64362;BME280;50685;53.346;-6.296;2023-08-20T00:07:42;101217.94;;;16.58;100.00
64362;BME280;50685;53.346;-6.296;2023-08-20T00:10:17;101219.50;;;16.57;100.00
64362;BME280;50685;53.346;-6.296;2023-08-20T00:12:47;101221.50;;;16.56;100.00
64362;BME280;50685;53.346;-6.296;2023-08-20T00:15:21;101224.69;;;16.54;100.00
64362;BME280;50685;53.346;-6.296;2023-08-20T00:17:54;101227.66;;;16.53;100.00
64362;BME280;50685;53.346;-6.296;2023-08-20T00:20:26;101231.03;;;16.52;100.00
64362;BME280;50685;53.346;-6.296;2023-08-20T00:22:53;101234.09;;;16.50;100.00
64362;BME280;50685;53.346;-6.296;2023-08-20T00:25:26;101236.91;;;16.48;100.00
64362;BME280;50685;53.346;-6.296;2023-08-20T00:35:39;101244.16;;;16.42;100.00
64362;BME280;50685;53.346;-6.296;2023-08-20T00:38:05;101244.72;;;16.40;100.00
64362;BME280;50685;53.346;-6.296;2023-08-20T00:40:37;101246.13;;;16.39;100.00
64362;BME280;50685;53.346;-6.296;2023-08-20T00:43:05;101246.28;;;16.37;100.00
64362;BME280;50685;53.346;-6.296;2023-08-20T01:01:07;101260.28;;;16.25;100.00
64362;BME280;50685;53.346;-6.296;2023-08-20T01:13:58;101271.31;;;16.17;100.00
64362;BME280;50685;53.346;-6.296;2023-08-20T01:16:45;101273.56;;;16.16;100.00
64362;BME280;50685;53.346;-6.296;2023-08-20T01:19:32;101276.03;;;16.15;100.00
64362;BME280;50685;53.346;-6.296;2023-08-20T01:24:54;101280.56;;;16.13;100.00
64362;BME280;50685;53.346;-6.296;2023-08-20T01:32:59;101283.28;;;16.12;100.00
64362;BME280;50685;53.346;-6.296;2023-08-20T01:35:34;101284.94;;;16.11;100.00
64362;BME280;50685;53.346;-6.296;2023-08-20T01:38:08;101285.72;;;16.11;100.00
64362;BME280;50685;53.346;-6.296;2023-08-20T01:40:39;101287.25;;;16.10;100.00
64362;BME280;50685;53.346;-6.296;2023-08-20T01:43:04;101288.88;;;16.10;100.00
64362;BME280;50685;53.346;-6.296;2023-08-20T01:45:33;101289.91;;;16.09;100.00
64362;BME280;50685;53.346;-6.296;2023-08-20T01:47:59;101291.34;;;16.08;100.00
64362;BME280;50685;53.346;-6.296;2023-08-20T01:50:24;101293.09;;;16.07;100.00
64362;BME280;50685;53.346;-6.296;2023-08-20T01:52:50;101295.19;;;16.05;100.00
64362;BME280;50685;53.346;-6.296;2023-08-20T01:55:17;101297.81;;;16.03;100.00
64362;BME280;50685;53.346;-6.296;2023-08-20T01:57:43;101299.81;;;16.01;100.00
64362;BME280;50685;53.346;-6.296;2023-08-20T02:00:09;101300.78;;;15.98;100.00
64362;BME280;50685;53.346;-6.296;2023-08-20T02:02:34;101303.41;;;15.96;100.00
64362;BME280;50685;53.346;-6.296;2023-08-20T02:05:00;101306.44;;;15.93;100.00
64362;BME280;50685;53.346;-6.296;2023-08-20T02:07:25;101308.59;;;15.90;100.00
64362;BME280;50685;53.346;-6.296;2023-08-20T02:09:51;101309.97;;;15.86;100.00
64362;BME280;50685;53.346;-6.296;2023-08-20T02:12:19;101312.28;;;15.83;100.00
64362;BME280;50685;53.346;-6.296;2023-08-20T02:14:47;101315.50;;;15.80;100.00
64362;BME280;50685;53.346;-6.296;2023-08-20T02:17:18;101318.47;;;15.77;100.00
64362;BME280;50685;53.346;-6.296;2023-08-20T02:19:44;101319.13;;;15.75;100.00
64362;BME280;50685;53.346;-6.296;2023-08-20T02:22:10;101321.03;;;15.73;100.00
64362;BME280;50685;53.346;-6.296;2023-08-20T02:24:41;101322.69;;;15.72;100.00
64362;BME280;50685;53.346;-6.296;2023-08-20T02:27:09;101323.50;;;15.71;100.00
64362;BME280;50685;53.346;-6.296;2023-08-20T02:29:36;101324.50;;;15.70;100.00
64362;BME280;50685;53.346;-6.296;2023-08-20T02:32:02;101324.81;;;15.69;100.00
64362;BME280;50685;53.346;-6.296;2023-08-20T02:34:27;101328.50;;;15.68;100.00
64362;BME280;50685;53.346;-6.296;2023-08-20T02:36:53;101331.94;;;15.67;100.00
64362;BME280;50685;53.346;-6.296;2023-08-20T02:44:45;101340.38;;;15.65;100.00
64362;BME280;50685;53.346;-6.296;2023-08-20T02:49:39;101343.41;;;15.64;100.00
64362;BME280;50685;53.346;-6.296;2023-08-20T02:52:05;101344.47;;;15.64;100.00
64362;BME280;50685;53.346;-6.296;2023-08-20T02:54:30;101345.63;;;15.64;100.00
64362;BME280;50685;53.346;-6.296;2023-08-20T02:56:59;101346.84;;;15.63;100.00
64362;BME280;50685;53.346;-6.296;2023-08-20T02:59:24;101347.47;;;15.63;100.00
64362;BME280;50685;53.346;-6.296;2023-08-20T03:01:55;101347.78;;;15.63;100.00
64362;BME280;50685;53.346;-6.296;2023-08-20T03:04:31;101348.69;;;15.63;100.00
64362;BME280;50685;53.346;-6.296;2023-08-20T03:14:49;101352.50;;;15.64;100.00
64362;BME280;50685;53.346;-6.296;2023-08-20T03:17:17;101353.50;;;15.65;100.00
64362;BME280;50685;53.346;-6.296;2023-08-20T03:19:58;101354.59;;;15.66;100.00
64362;BME280;50685;53.346;-6.296;2023-08-20T03:22:24;101355.22;;;15.67;100.00
64362;BME280;50685;53.346;-6.296;2023-08-20T03:24:53;101356.63;;;15.67;100.00
64362;BME280;50685;53.346;-6.296;2023-08-20T03:27:31;101357.13;;;15.67;100.00
64362;BME280;50685;53.346;-6.296;2023-08-20T03:30:02;101358.88;;;15.68;100.00
64362;BME280;50685;53.346;-6.296;2023-08-20T03:32:41;101360.22;;;15.68;100.00
64362;BME280;50685;53.346;-6.296;2023-08-20T03:37:47;101363.00;;;15.68;100.00
64362;BME280;50685;53.346;-6.296;2023-08-20T03:40:30;101364.34;;;15.68;100.00
64362;BME280;50685;53.346;-6.296;2023-08-20T03:42:56;101366.44;;;15.68;100.00
64362;BME280;50685;53.346;-6.296;2023-08-20T03:48:00;101367.56;;;15.68;100.00
64362;BME280;50685;53.346;-6.296;2023-08-20T03:50:48;101369.09;;;15.68;100.00
64362;BME280;50685;53.346;-6.296;2023-08-20T03:53:29;101370.06;;;15.67;100.00
64362;BME280;50685;53.346;-6.296;2023-08-20T04:01:28;101375.16;;;15.67;100.00
64362;BME280;50685;53.346;-6.296;2023-08-20T04:11:57;101380.09;;;15.66;100.00
64362;BME280;50685;53.346;-6.296;2023-08-20T04:14:25;101382.44;;;15.66;100.00
64362;BME280;50685;53.346;-6.296;2023-08-20T04:19:24;101385.78;;;15.66;100.00
64362;BME280;50685;53.346;-6.296;2023-08-20T04:21:49;101386.88;;;15.66;100.00
64362;BME280;50685;53.346;-6.296;2023-08-20T04:24:19;101389.03;;;15.67;100.00
64362;BME280;50685;53.346;-6.296;2023-08-20T04:26:45;101390.25;;;15.68;100.00
64362;BME280;50685;53.346;-6.296;2023-08-20T04:29:13;101392.41;;;15.69;100.00
64362;BME280;50685;53.346;-6.296;2023-08-20T04:31:39;101392.88;;;15.69;100.00
64362;BME280;50685;53.346;-6.296;2023-08-20T04:34:07;101394.13;;;15.70;100.00
64362;BME280;50685;53.346;-6.296;2023-08-20T04:36:33;101394.88;;;15.71;100.00
64362;BME280;50685;53.346;-6.296;2023-08-20T04:38:59;101395.31;;;15.72;100.00
64362;BME280;50685;53.346;-6.296;2023-08-20T04:41:24;101395.06;;;15.73;100.00
64362;BME280;50685;53.346;-6.296;2023-08-20T04:43:54;101395.94;;;15.75;100.00
64362;BME280;50685;53.346;-6.296;2023-08-20T04:46:20;101397.09;;;15.76;100.00
64362;BME280;50685;53.346;-6.296;2023-08-20T04:48:45;101397.66;;;15.77;100.00
64362;BME280;50685;53.346;-6.296;2023-08-20T04:51:14;101397.97;;;15.77;100.00
64362;BME280;50685;53.346;-6.296;2023-08-20T04:53:57;101398.97;;;15.78;100.00
64362;BME280;50685;53.346;-6.296;2023-08-20T04:56:29;101400.34;;;15.79;100.00
64362;BME280;50685;53.346;-6.296;2023-08-20T04:58:54;101400.84;;;15.79;100.00
64362;BME280;50685;53.346;-6.296;2023-08-20T05:01:22;101401.09;;;15.80;100.00
64362;BME280;50685;53.346;-6.296;2023-08-20T05:03:51;101401.03;;;15.80;100.00
64362;BME280;50685;53.346;-6.296;2023-08-20T05:06:19;101402.47;;;15.80;100.00
64362;BME280;50685;53.346;-6.296;2023-08-20T05:21:56;101408.59;;;15.76;100.00
64362;BME280;50685;53.346;-6.296;2023-08-20T05:24:24;101409.47;;;15.75;100.00
64362;BME280;50685;53.346;-6.296;2023-08-20T05:27:05;101411.88;;;15.73;100.00
64362;BME280;50685;53.346;-6.296;2023-08-20T05:29:37;101413.31;;;15.71;100.00
64362;BME280;50685;53.346;-6.296;2023-08-20T05:32:08;101414.97;;;15.69;100.00
64362;BME280;50685;53.346;-6.296;2023-08-20T05:34:39;101416.28;;;15.66;100.00
64362;BME280;50685;53.346;-6.296;2023-08-20T05:37:08;101419.84;;;15.65;100.00
64362;BME280;50685;53.346;-6.296;2023-08-20T05:39:40;101422.44;;;15.63;100.00
64362;BME280;50685;53.346;-6.296;2023-08-20T05:42:08;101425.41;;;15.62;100.00
64362;BME280;50685;53.346;-6.296;2023-08-20T05:44:37;101427.78;;;15.61;100.00
64362;BME280;50685;53.346;-6.296;2023-08-20T05:47:05;101428.47;;;15.60;100.00
64362;BME280;50685;53.346;-6.296;2023-08-20T05:52:09;101432.03;;;15.60;100.00
64362;BME280;50685;53.346;-6.296;2023-08-20T05:54:34;101433.97;;;15.60;100.00
64362;BME280;50685;53.346;-6.296;2023-08-20T05:57:00;101435.56;;;15.61;100.00
64362;BME280;50685;53.346;-6.296;2023-08-20T05:59:26;101436.50;;;15.62;100.00
64362;BME280;50685;53.346;-6.296;2023-08-20T06:04:30;101438.56;;;15.64;100.00
64362;BME280;50685;53.346;-6.296;2023-08-20T06:07:21;101440.09;;;15.66;100.00
64362;BME280;50685;53.346;-6.296;2023-08-20T06:12:22;101442.63;;;15.72;100.00
64362;BME280;50685;53.346;-6.296;2023-08-20T06:14:48;101443.91;;;15.76;100.00
64362;BME280;50685;53.346;-6.296;2023-08-20T06:17:13;101445.00;;;15.80;100.00
64362;BME280;50685;53.346;-6.296;2023-08-20T06:19:39;101445.75;;;15.85;100.00
64362;BME280;50685;53.346;-6.296;2023-08-20T06:22:07;101446.09;;;15.89;100.00
64362;BME280;50685;53.346;-6.296;2023-08-20T06:24:34;101447.50;;;15.95;100.00
64362;BME280;50685;53.346;-6.296;2023-08-20T06:37:23;101452.16;;;16.16;100.00
64362;BME280;50685;53.346;-6.296;2023-08-20T06:39:48;101454.44;;;16.21;100.00
64362;BME280;50685;53.346;-6.296;2023-08-20T06:42:14;101456.00;;;16.25;100.00
64362;BME280;50685;53.346;-6.296;2023-08-20T06:44:39;101457.66;;;16.30;100.00
64362;BME280;50685;53.346;-6.296;2023-08-20T06:47:08;101460.59;;;16.35;100.00
64362;BME280;50685;53.346;-6.296;2023-08-20T06:49:33;101462.56;;;16.40;100.00
64362;BME280;50685;53.346;-6.296;2023-08-20T06:51:59;101464.06;;;16.45;100.00
64362;BME280;50685;53.346;-6.296;2023-08-20T06:54:24;101465.22;;;16.50;100.00
64362;BME280;50685;53.346;-6.296;2023-08-20T06:56:50;101467.28;;;16.56;100.00
64362;BME280;50685;53.346;-6.296;2023-08-20T06:59:18;101468.94;;;16.61;100.00
64362;BME280;50685;53.346;-6.296;2023-08-20T07:01:47;101472.38;;;16.67;100.00
64362;BME280;50685;53.346;-6.296;2023-08-20T07:04:16;101473.81;;;16.73;100.00
64362;BME280;50685;53.346;-6.296;2023-08-20T07:06:41;101473.84;;;16.80;100.00
64362;BME280;50685;53.346;-6.296;2023-08-20T07:09:12;101474.78;;;16.86;100.00
64362;BME280;50685;53.346;-6.296;2023-08-20T07:11:37;101475.28;;;16.93;100.00
64362;BME280;50685;53.346;-6.296;2023-08-20T07:14:05;101476.41;;;17.00;100.00
64362;BME280;50685;53.346;-6.296;2023-08-20T07:16:31;101477.41;;;17.07;100.00
64362;BME280;50685;53.346;-6.296;2023-08-20T07:18:57;101478.19;;;17.16;100.00
64362;BME280;50685;53.346;-6.296;2023-08-20T07:21:25;101478.53;;;17.27;100.00
64362;BME280;50685;53.346;-6.296;2023-08-20T07:23:50;101480.88;;;17.39;100.00
64362;BME280;50685;53.346;-6.296;2023-08-20T07:26:16;101481.94;;;17.52;100.00
64362;BME280;50685;53.346;-6.296;2023-08-20T07:28:45;101482.72;;;17.66;100.00
64362;BME280;50685;53.346;-6.296;2023-08-20T07:31:24;101484.59;;;17.80;96.72
64362;BME280;50685;53.346;-6.296;2023-08-20T07:33:50;101485.94;;;17.95;99.07
64362;BME280;50685;53.346;-6.296;2023-08-20T07:36:15;101487.38;;;18.12;97.53
64362;BME280;50685;53.346;-6.296;2023-08-20T07:38:41;101489.34;;;18.30;92.76
64362;BME280;50685;53.346;-6.296;2023-08-20T07:41:21;101490.31;;;18.48;87.43
64362;BME280;50685;53.346;-6.296;2023-08-20T07:43:52;101491.00;;;18.65;89.17
64362;BME280;50685;53.346;-6.296;2023-08-20T07:46:20;101491.81;;;18.82;87.16
64362;BME280;50685;53.346;-6.296;2023-08-20T07:48:54;101493.50;;;18.97;85.88
64362;BME280;50685;53.346;-6.296;2023-08-20T07:51:19;101494.97;;;19.11;82.74
64362;BME280;50685;53.346;-6.296;2023-08-20T07:53:45;101496.59;;;19.23;82.60
64362;BME280;50685;53.346;-6.296;2023-08-20T07:56:20;101497.78;;;19.33;80.14
64362;BME280;50685;53.346;-6.296;2023-08-20T07:58:48;101499.00;;;19.42;79.80
64362;BME280;50685;53.346;-6.296;2023-08-20T08:01:14;101499.50;;;19.50;80.39
64362;BME280;50685;53.346;-6.296;2023-08-20T08:03:45;101500.75;;;19.55;78.19
64362;BME280;50685;53.346;-6.296;2023-08-20T08:06:13;101502.06;;;19.61;79.22
64362;BME280;50685;53.346;-6.296;2023-08-20T08:08:45;101502.72;;;19.65;76.93
64362;BME280;50685;53.346;-6.296;2023-08-20T08:11:17;101504.41;;;19.68;75.32
64362;BME280;50685;53.346;-6.296;2023-08-20T08:13:42;101505.84;;;19.72;75.41
64362;BME280;50685;53.346;-6.296;2023-08-20T08:16:17;101506.94;;;19.75;75.79
64362;BME280;50685;53.346;-6.296;2023-08-20T08:18:48;101508.03;;;19.75;74.03
64362;BME280;50685;53.346;-6.296;2023-08-20T08:26:40;101514.06;;;19.68;76.15
64362;BME280;50685;53.346;-6.296;2023-08-20T08:29:18;101515.06;;;19.64;76.44
64362;BME280;50685;53.346;-6.296;2023-08-20T08:32:04;101516.88;;;19.60;76.10
64362;BME280;50685;53.346;-6.296;2023-08-20T08:34:55;101518.69;;;19.56;75.62
64362;BME280;50685;53.346;-6.296;2023-08-20T08:37:30;101520.03;;;19.51;77.69
64362;BME280;50685;53.346;-6.296;2023-08-20T08:40:26;101521.53;;;19.46;75.84
64362;BME280;50685;53.346;-6.296;2023-08-20T08:42:57;101523.53;;;19.41;77.82
64362;BME280;50685;53.346;-6.296;2023-08-20T08:45:26;101525.28;;;19.36;78.03
64362;BME280;50685;53.346;-6.296;2023-08-20T08:47:57;101527.19;;;19.31;78.38
64362;BME280;50685;53.346;-6.296;2023-08-20T08:50:23;101528.97;;;19.26;79.59
64362;BME280;50685;53.346;-6.296;2023-08-20T08:52:50;101530.88;;;19.24;80.15
64362;BME280;50685;53.346;-6.296;2023-08-20T08:55:18;101532.13;;;19.21;80.07
64362;BME280;50685;53.346;-6.296;2023-08-20T08:57:46;101534.59;;;19.19;79.86
64362;BME280;50685;53.346;-6.296;2023-08-20T09:00:15;101535.66;;;19.17;79.81
64362;BME280;50685;53.346;-6.296;2023-08-20T09:02:41;101536.47;;;19.14;81.14
64362;BME280;50685;53.346;-6.296;2023-08-20T09:05:07;101537.13;;;19.10;80.23
64362;BME280;50685;53.346;-6.296;2023-08-20T09:07:32;101537.03;;;19.07;80.91
64362;BME280;50685;53.346;-6.296;2023-08-20T09:09:58;101536.88;;;19.04;82.37
64362;BME280;50685;53.346;-6.296;2023-08-20T09:12:26;101537.75;;;19.02;81.77
64362;BME280;50685;53.346;-6.296;2023-08-20T09:14:52;101538.41;;;19.01;82.30
64362;BME280;50685;53.346;-6.296;2023-08-20T09:17:28;101540.38;;;19.01;81.42
64362;BME280;50685;53.346;-6.296;2023-08-20T09:19:54;101540.13;;;19.02;79.28
64362;BME280;50685;53.346;-6.296;2023-08-20T09:22:21;101541.00;;;19.08;80.31
64362;BME280;50685;53.346;-6.296;2023-08-20T09:24:51;101542.47;;;19.19;77.20
64362;BME280;50685;53.346;-6.296;2023-08-20T09:27:18;101542.19;;;19.35;72.43
64362;BME280;50685;53.346;-6.296;2023-08-20T09:29:50;101540.25;;;19.53;69.56
64362;BME280;50685;53.346;-6.296;2023-08-20T09:32:17;101541.53;;;19.73;67.03
64362;BME280;50685;53.346;-6.296;2023-08-20T09:34:43;101541.41;;;19.98;68.69
64362;BME280;50685;53.346;-6.296;2023-08-20T09:37:09;101541.63;;;20.22;64.59
64362;BME280;50685;53.346;-6.296;2023-08-20T09:42:10;101542.00;;;20.59;63.87
64362;BME280;50685;53.346;-6.296;2023-08-20T09:44:41;101542.44;;;20.77;59.36
64362;BME280;50685;53.346;-6.296;2023-08-20T09:49:50;101542.00;;;21.09;60.41
64362;BME280;50685;53.346;-6.296;2023-08-20T09:52:28;101541.94;;;21.24;59.14
64362;BME280;50685;53.346;-6.296;2023-08-20T10:05:14;101543.41;;;21.71;58.82
64362;BME280;50685;53.346;-6.296;2023-08-20T10:18:41;101544.16;;;21.95;60.15
64362;BME280;50685;53.346;-6.296;2023-08-20T10:21:28;101544.97;;;21.98;59.63
64362;BME280;50685;53.346;-6.296;2023-08-20T10:23:54;101545.69;;;22.03;58.70
64362;BME280;50685;53.346;-6.296;2023-08-20T10:26:30;101546.13;;;22.10;58.06
64362;BME280;50685;53.346;-6.296;2023-08-20T10:34:59;101550.50;;;22.41;54.42
64362;BME280;50685;53.346;-6.296;2023-08-20T10:37:28;101550.75;;;22.52;54.39
64362;BME280;50685;53.346;-6.296;2023-08-20T10:48:01;101556.28;;;22.94;52.14
64362;BME280;50685;53.346;-6.296;2023-08-20T10:50:29;101558.22;;;23.00;52.05
64362;BME280;50685;53.346;-6.296;2023-08-20T10:52:56;101559.28;;;23.05;51.31
64362;BME280;50685;53.346;-6.296;2023-08-20T10:55:30;101561.75;;;23.11;51.08
64362;BME280;50685;53.346;-6.296;2023-08-20T10:57:59;101563.13;;;23.17;50.85
64362;BME280;50685;53.346;-6.296;2023-08-20T11:21:38;101561.63;;;23.76;50.55
64362;BME280;50685;53.346;-6.296;2023-08-20T11:24:42;101560.50;;;23.71;50.05
64362;BME280;50685;53.346;-6.296;2023-08-20T11:27:10;101560.03;;;23.64;51.12
64362;BME280;50685;53.346;-6.296;2023-08-20T11:29:57;101559.94;;;23.54;52.54
64362;BME280;50685;53.346;-6.296;2023-08-20T11:32:24;101559.72;;;23.43;53.05
64362;BME280;50685;53.346;-6.296;2023-08-20T11:37:45;101556.06;;;23.21;53.34
64362;BME280;50685;53.346;-6.296;2023-08-20T11:48:22;101555.53;;;22.86;55.93
64362;BME280;50685;53.346;-6.296;2023-08-20T11:50:49;101554.59;;;22.79;55.74
64362;BME280;50685;53.346;-6.296;2023-08-20T11:53:14;101554.59;;;22.74;54.05
64362;BME280;50685;53.346;-6.296;2023-08-20T12:01:36;101556.00;;;22.70;53.50
64362;BME280;50685;53.346;-6.296;2023-08-20T12:09:23;101558.72;;;22.88;55.50
64362;BME280;50685;53.346;-6.296;2023-08-20T12:11:52;101558.78;;;23.01;52.28
64362;BME280;50685;53.346;-6.296;2023-08-20T12:14:20;101560.09;;;23.15;51.35
64362;BME280;50685;53.346;-6.296;2023-08-20T12:16:54;101562.16;;;23.27;49.73
64362;BME280;50685;53.346;-6.296;2023-08-20T12:19:44;101562.47;;;23.36;49.17
64362;BME280;50685;53.346;-6.296;2023-08-20T12:31:00;101557.88;;;23.78;49.22
64362;BME280;50685;53.346;-6.296;2023-08-20T12:38:38;101556.50;;;24.20;47.71
64362;BME280;50685;53.346;-6.296;2023-08-20T12:41:12;101555.13;;;24.33;48.24
64362;BME280;50685;53.346;-6.296;2023-08-20T12:43:38;101552.75;;;24.46;46.42
64362;BME280;50685;53.346;-6.296;2023-08-20T12:46:03;101550.63;;;24.56;45.24
64362;BME280;50685;53.346;-6.296;2023-08-20T12:51:05;101552.22;;;24.77;46.72
64362;BME280;50685;53.346;-6.296;2023-08-20T12:53:31;101550.72;;;24.88;43.80
64362;BME280;50685;53.346;-6.296;2023-08-20T12:55:56;101550.56;;;24.99;44.59
64362;BME280;50685;53.346;-6.296;2023-08-20T12:58:22;101548.75;;;25.09;45.05
64362;BME280;50685;53.346;-6.296;2023-08-20T13:00:47;101548.75;;;25.20;45.89
64362;BME280;50685;53.346;-6.296;2023-08-20T13:03:13;101547.78;;;25.31;44.26
64362;BME280;50685;53.346;-6.296;2023-08-20T13:05:38;101547.59;;;25.41;42.88
64362;BME280;50685;53.346;-6.296;2023-08-20T13:08:04;101547.31;;;25.50;42.70
64362;BME280;50685;53.346;-6.296;2023-08-20T13:10:29;101546.41;;;25.60;42.63
64362;BME280;50685;53.346;-6.296;2023-08-20T13:13:01;101546.81;;;25.67;42.54
64362;BME280;50685;53.346;-6.296;2023-08-20T13:15:27;101546.47;;;25.74;42.80
64362;BME280;50685;53.346;-6.296;2023-08-20T13:17:55;101546.47;;;25.80;42.93
64362;BME280;50685;53.346;-6.296;2023-08-20T13:20:23;101545.56;;;25.82;42.76
64362;BME280;50685;53.346;-6.296;2023-08-20T13:22:52;101546.00;;;25.79;45.00
64362;BME280;50685;53.346;-6.296;2023-08-20T13:25:18;101545.50;;;25.79;45.04
64362;BME280;50685;53.346;-6.296;2023-08-20T13:27:43;101545.34;;;25.81;44.61
64362;BME280;50685;53.346;-6.296;2023-08-20T13:30:12;101544.31;;;25.85;44.77
64362;BME280;50685;53.346;-6.296;2023-08-20T13:32:40;101544.09;;;25.92;44.34
64362;BME280;50685;53.346;-6.296;2023-08-20T13:35:05;101543.34;;;25.97;42.75
64362;BME280;50685;53.346;-6.296;2023-08-20T13:37:37;101543.69;;;26.03;43.80
64362;BME280;50685;53.346;-6.296;2023-08-20T13:40:02;101545.16;;;26.09;43.16
64362;BME280;50685;53.346;-6.296;2023-08-20T13:42:43;101545.00;;;26.13;41.40
64362;BME280;50685;53.346;-6.296;2023-08-20T13:45:08;101542.44;;;26.17;41.11
64362;BME280;50685;53.346;-6.296;2023-08-20T13:47:39;101544.38;;;26.18;43.62
64362;BME280;50685;53.346;-6.296;2023-08-20T13:50:25;101544.72;;;26.19;44.02
64362;BME280;50685;53.346;-6.296;2023-08-20T13:59:01;101541.09;;;26.21;44.07
64362;BME280;50685;53.346;-6.296;2023-08-20T14:01:38;101541.16;;;26.25;42.95
64362;BME280;50685;53.346;-6.296;2023-08-20T14:04:03;101539.22;;;26.25;44.74
64362;BME280;50685;53.346;-6.296;2023-08-20T14:06:31;101539.63;;;26.22;44.16
64362;BME280;50685;53.346;-6.296;2023-08-20T14:09:02;101538.50;;;26.22;43.77
64362;BME280;50685;53.346;-6.296;2023-08-20T14:17:29;101534.13;;;26.23;43.64
64362;BME280;50685;53.346;-6.296;2023-08-20T14:25:25;101534.75;;;26.12;43.90
64362;BME280;50685;53.346;-6.296;2023-08-20T14:33:13;101531.56;;;25.92;43.55
64362;BME280;50685;53.346;-6.296;2023-08-20T14:35:47;101530.91;;;25.93;43.68
64362;BME280;50685;53.346;-6.296;2023-08-20T14:38:21;101529.63;;;25.93;44.01
64362;BME280;50685;53.346;-6.296;2023-08-20T14:41:11;101528.16;;;25.94;43.75
64362;BME280;50685;53.346;-6.296;2023-08-20T14:43:36;101526.41;;;25.97;44.57
64362;BME280;50685;53.346;-6.296;2023-08-20T14:46:04;101524.22;;;26.01;44.00
64362;BME280;50685;53.346;-6.296;2023-08-20T14:48:29;101521.44;;;26.04;44.25
64362;BME280;50685;53.346;-6.296;2023-08-20T14:50:59;101520.03;;;26.06;42.33
64362;BME280;50685;53.346;-6.296;2023-08-20T14:53:36;101518.75;;;26.07;43.87
64362;BME280;50685;53.346;-6.296;2023-08-20T14:56:07;101517.03;;;26.11;44.04
64362;BME280;50685;53.346;-6.296;2023-08-20T14:58:36;101514.53;;;26.12;43.33
64362;BME280;50685;53.346;-6.296;2023-08-20T15:01:10;101513.03;;;26.13;43.13
64362;BME280;50685;53.346;-6.296;2023-08-20T15:03:38;101511.28;;;26.13;43.58
64362;BME280;50685;53.346;-6.296;2023-08-20T15:06:04;101508.78;;;26.14;43.52
64362;BME280;50685;53.346;-6.296;2023-08-20T15:14:10;101503.31;;;26.12;44.36
64362;BME280;50685;53.346;-6.296;2023-08-20T15:16:55;101501.53;;;26.12;45.41
64362;BME280;50685;53.346;-6.296;2023-08-20T15:19:24;101501.13;;;26.14;44.28
64362;BME280;50685;53.346;-6.296;2023-08-20T15:24:27;101501.28;;;26.18;43.24
64362;BME280;50685;53.346;-6.296;2023-08-20T15:32:49;101498.50;;;26.17;45.86
64362;BME280;50685;53.346;-6.296;2023-08-20T15:35:26;101498.09;;;26.11;44.28
64362;BME280;50685;53.346;-6.296;2023-08-20T15:43:32;101496.16;;;25.88;46.92
64362;BME280;50685;53.346;-6.296;2023-08-20T15:46:00;101496.06;;;25.83;47.04
64362;BME280;50685;53.346;-6.296;2023-08-20T15:48:43;101496.88;;;25.78;48.03
64362;BME280;50685;53.346;-6.296;2023-08-20T15:53:54;101498.59;;;25.67;48.25
64362;BME280;50685;53.346;-6.296;2023-08-20T15:56:31;101497.88;;;25.58;48.37
64362;BME280;50685;53.346;-6.296;2023-08-20T16:10:17;101499.84;;;25.08;50.73
64362;BME280;50685;53.346;-6.296;2023-08-20T16:13:11;101500.94;;;24.97;51.50
64362;BME280;50685;53.346;-6.296;2023-08-20T16:15:40;101503.34;;;24.87;51.10
64362;BME280;50685;53.346;-6.296;2023-08-20T16:18:06;101506.78;;;24.76;52.17
64362;BME280;50685;53.346;-6.296;2023-08-20T16:20:34;101509.13;;;24.64;54.05
64362;BME280;50685;53.346;-6.296;2023-08-20T16:23:01;101511.34;;;24.55;54.58
64362;BME280;50685;53.346;-6.296;2023-08-20T16:25:47;101512.16;;;24.48;52.81
64362;BME280;50685;53.346;-6.296;2023-08-20T16:28:14;101513.09;;;24.41;54.19
64362;BME280;50685;53.346;-6.296;2023-08-20T16:30:42;101513.66;;;24.35;53.20
64362;BME280;50685;53.346;-6.296;2023-08-20T16:33:10;101514.06;;;24.30;54.37
64362;BME280;50685;53.346;-6.296;2023-08-20T16:35:36;101517.09;;;24.25;54.38
64362;BME280;50685;53.346;-6.296;2023-08-20T16:38:01;101517.84;;;24.18;55.00
64362;BME280;50685;53.346;-6.296;2023-08-20T16:40:41;101519.41;;;24.10;54.43
64362;BME280;50685;53.346;-6.296;2023-08-20T16:43:11;101520.44;;;24.01;55.41
64362;BME280;50685;53.346;-6.296;2023-08-20T16:45:40;101521.75;;;23.91;54.70
64362;BME280;50685;53.346;-6.296;2023-08-20T16:48:14;101522.59;;;23.81;55.53
64362;BME280;50685;53.346;-6.296;2023-08-20T16:50:45;101524.88;;;23.72;57.07
64362;BME280;50685;53.346;-6.296;2023-08-20T16:53:28;101526.09;;;23.64;56.12
64362;BME280;50685;53.346;-6.296;2023-08-20T16:55:54;101529.41;;;23.58;57.42
64362;BME280;50685;53.346;-6.296;2023-08-20T16:58:31;101531.00;;;23.53;56.64
64362;BME280;50685;53.346;-6.296;2023-08-20T17:01:03;101533.28;;;23.48;55.33
64362;BME280;50685;53.346;-6.296;2023-08-20T17:03:32;101535.09;;;23.46;55.44
64362;BME280;50685;53.346;-6.296;2023-08-20T17:06:04;101535.94;;;23.41;55.06
64362;BME280;50685;53.346;-6.296;2023-08-20T17:11:09;101537.03;;;23.33;57.50
64362;BME280;50685;53.346;-6.296;2023-08-20T17:13:39;101537.94;;;23.30;57.71
64362;BME280;50685;53.346;-6.296;2023-08-20T17:23:53;101539.09;;;23.10;56.23
64362;BME280;50685;53.346;-6.296;2023-08-20T17:26:18;101540.25;;;23.07;56.45
64362;BME280;50685;53.346;-6.296;2023-08-20T17:28:44;101540.78;;;23.03;58.22
64362;BME280;50685;53.346;-6.296;2023-08-20T17:31:09;101540.97;;;23.01;56.59